LIEO/OLB METAR and TAF weather

Enter ICAO airport designator
Station Type Date Time Source
LIEO METAR 2020/09/25 18:20 UTC NOAA

LIEO 251820Z 25028G44KT 7000 -RA SCT025 17/09 Q1004


Station Type Date Time Source
LIEO Decoded METAR 2020/09/25 18:20 UTC NOAA

Olbia / Costa Smeralda, Italy (LIEO) 40-54N 009-31E 13M
Sep 25, 2020 - 02:20 PM EDT / 2020.09.25 1820 UTC
Wind: from the WSW (250 degrees) at 32 MPH (28 KT) gusting to 51 MPH (44 KT):0
Visibility: 4 mile(s):0
Sky conditions: partly cloudy
Weather: light rain
Temperature: 62 F (17 C)
Dew Point: 48 F (9 C)
Relative Humidity: 59%
Pressure (altimeter): 29.65 in. Hg (1004 hPa)
ob: LIEO 251820Z 25028G44KT 7000 -RA SCT025 17/09 Q1004
cycle: 18

Station Type Date Time Source
LIEO TAF 2020/09/25 18:26 UTC NOAA

TAF LIEO 251700Z 2518/2618 26025G35KT 9999 SCT030

Example: see airport list